Terminal Aerodrome Forecast
Issued by NWS Duluth, MN

Home | Current Version | Previous Version | Text Only | Print | Product List | Glossary On
Versions: 1 2 3 4 5 6 7 8 9 10 11 12 13 14 15 16 17 18 19 20 21 22 23 24 25 26 27 28 29 30 31
000
FTUS43 KDLH 132300 RRA
TAFDLH
TAF
KDLH 132346Z 1400/1424 19008KT P6SM OVC060
     FM140600 20008KT P6SM VCSH SCT030 OVC050 WS015/23035KT
     FM141200 24010KT P6SM SCT050
     FM141600 27012G20KT P6SM BKN050=

USA.gov is the U.S. government's official web portal to all federal, state and local government web resources and services.